Latest Weather Observations for Merimbula

IDN60801

Issued at 3:33 am EDT Monday 2 March 2015 (issued every 30 minutes, with the page automatically refreshed every 10 minutes)

About weather observations | Map of weather stations | Latest weather observations for NSW | Other Formats
Station Details ID: 069147 Name: MERIMBULA AIRPORT AWS Lat: -36.91 Lon: 149.90 Height: 1.5 m
Data from the previous 72 hours. | See also: Recent months at Merimbula
Date/Time
EDT
Temp
°C
App
Temp
°C
Dew
Point
Rel
Hum
%
Delta-T
°C
Wind Press
QNH
hPa
Press
MSL
hPa
Rain
since 9 am
mm
Dir
 
Spd
km/h
Gust
km/h
Spd
kts
Gust
kts
02/03:30am 12.3 10.8 9.1 81 1.6 S 7 11 4 6 1018.0 1018.0 2.2
02/03:00am 13.9 12.1 9.5 75 2.2 WNW 9 13 5 7 1018.0 1018.0 2.2
02/02:30am 13.7 11.3 9.9 78 2.0 W 13 17 7 9 1018.3 1018.3 2.2
02/02:00am 13.3 11.6 9.7 79 1.8 W 9 11 5 6 1018.3 1018.3 2.2
02/01:30am 12.3 11.5 9.5 83 1.4 W 4 13 2 7 1018.1 1018.1 2.2
02/01:00am 13.3 13.6 11.0 86 1.2 CALM 0 0 0 0 1018.1 1018.1 2.2
02/12:30am 14.0 14.2 10.4 79 1.9 CALM 0 6 0 3 1017.9 1017.9 2.2
02/12:00am 15.3 13.3 10.1 71 2.7 WSW 11 17 6 9 1018.1 1018.1 2.2
 
Date/Time
EDT
Temp
°C
App
Temp
°C
Dew
Point
Rel
Hum
%
Delta-T
°C
Wind Press
QNH
hPa
Press
MSL
hPa
Rain
since 9 am
mm
Dir
 
Spd
km/h
Gust
km/h
Spd
kts
Gust
kts
01/11:30pm 15.4 13.9 10.4 72 2.6 WSW 9 20 5 11 1018.2 1018.2 2.2
01/11:00pm 15.4 13.9 10.6 73 2.5 WSW 9 15 5 8 1018.3 1018.3 2.2
01/10:30pm 15.1 13.8 10.1 72 2.6 SSW 7 13 4 7 1018.0 1018.0 2.2
01/10:00pm 15.6 14.0 10.2 70 2.8 SW 9 11 5 6 1017.8 1017.8 2.2
01/09:30pm 16.4 14.3 9.8 65 3.5 SSW 11 19 6 10 1017.4 1017.4 2.2
01/09:00pm 17.0 14.5 9.7 62 3.8 S 13 20 7 11 1016.9 1016.9 2.2
01/08:30pm 17.5 14.6 9.7 60 4.1 SSW 15 22 8 12 1016.3 1016.3 2.2
01/08:00pm 17.9 14.7 9.8 59 4.3 SSW 17 26 9 14 1015.6 1015.6 2.2
01/07:30pm 18.3 15.2 10.2 59 4.3 SSW 17 32 9 17 1014.8 1014.8 2.2
01/07:00pm 19.1 15.6 10.1 56 4.8 SSW 19 35 10 19 1014.1 1014.1 2.2
01/06:30pm 18.8 14.8 10.6 59 4.4 SSW 22 39 12 21 1013.3 1013.3 2.2
01/06:00pm 20.1 16.5 10.5 54 5.2 SW 20 33 11 18 1012.9 1012.9 2.2
01/05:30pm 21.0 16.3 10.8 52 5.6 SW 26 41 14 22 1012.1 1012.1 2.2
01/05:15pm 21.2 16.1 10.7 51 5.7 SW 28 46 15 25 1011.8 1011.8 2.2
01/05:00pm 21.4 16.0 10.9 51 5.8 SSW 30 46 16 25 1011.7 1011.7 2.2
01/04:46pm 21.4 16.4 10.9 51 5.8 SW 28 46 15 25 1011.7 1011.7 2.2
01/04:30pm 21.8 17.5 10.9 50 6.0 SSW 24 41 13 22 1011.4 1011.4 2.2
01/04:00pm 22.0 19.2 11.4 51 5.9 SW 17 35 9 19 1010.9 1010.9 2.0
01/03:30pm 20.0 15.4 12.3 61 4.3 SSW 28 52 15 28 1010.5 1010.5 2.0
01/03:28pm 20.2 15.6 12.2 60 4.5 SSW 28 52 15 28 1010.5 1010.5 2.0
01/03:27pm 20.3 16.1 12.3 60 4.5 SSW 26 52 14 28 1010.5 1010.5 2.0
01/03:00pm 20.7 17.8 12.4 59 4.7 SW 19 32 10 17 1010.3 1010.3 2.0
01/02:30pm 19.9 17.0 12.2 61 4.3 SW 19 33 10 18 1010.3 1010.3 2.0
01/02:00pm 19.1 16.6 13.5 70 3.2 SW 19 30 10 16 1009.7 1009.7 2.0
01/01:30pm 18.5 14.6 13.4 72 2.9 SSW 26 41 14 22 1009.4 1009.4 2.0
01/01:00pm 18.8 15.6 14.3 75 2.6 SW 24 33 13 18 1009.5 1009.5 2.0
01/12:30pm 19.1 16.5 15.0 77 2.4 SW 22 39 12 21 1009.2 1009.2 2.0
01/12:00pm 19.4 18.0 17.0 86 1.5 SSW 20 32 11 17 1008.3 1008.3 2.0
01/11:30am 19.3 18.1 17.4 89 1.2 S 20 35 11 19 1008.7 1008.7 2.0
01/11:02am 20.4 22.3 18.9 91 0.9 SW 7 15 4 8 1008.4 1008.4 1.2
01/11:00am 20.3 22.3 18.8 91 0.9 SW 6 15 3 8 1008.3 1008.3 1.2
01/10:38am 20.2 20.9 18.0 87 1.4 S 11 20 6 11 1007.2 1007.2 0.6
01/10:30am 20.7 20.8 17.5 82 2.0 SSW 13 20 7 11 1007.4 1007.4 0.0
01/10:00am 21.0 21.8 17.4 80 2.2 SSW 9 15 5 8 1007.3 1007.3 0.0
01/09:30am 20.2 22.9 17.8 86 1.5 CALM 0 0 0 0 1006.8 1006.8 0.0
01/09:00am 20.3 23.2 18.2 88 1.3 CALM 0 0 0 0 1006.1 1006.1 0.0
01/08:30am 20.2 22.3 18.1 88 1.3 WNW 4 11 2 6 1005.5 1005.5 0.0
01/08:00am 19.9 22.8 18.2 90 1.1 CALM 0 0 0 0 1004.9 1004.9 0.0
01/07:30am 19.8 22.3 17.2 85 1.6 CALM 0 0 0 0 1004.8 1004.8 0.0
01/07:00am 20.2 21.8 16.8 81 2.1 ENE 4 11 2 6 1004.0 1004.0 0.0
01/06:30am 20.1 19.9 16.7 81 2.1 SE 13 19 7 10 1003.6 1003.6 0.0
01/05:30am 20.4 21.2 17.4 83 1.8 SSE 9 15 5 8 1003.5 1003.5 0.0
01/05:00am 20.1 23.2 18.6 91 0.9 CALM 0 0 0 0 1003.3 1003.3 0.0
01/04:30am 20.0 22.5 19.0 94 0.6 NNW 4 9 2 5 1002.9 1002.9 0.0
01/04:00am 19.6 19.2 18.9 96 0.4 S 19 28 10 15 1002.5 1002.5 0.0
01/03:30am 18.3 20.9 17.5 95 0.5 CALM 0 0 0 0 1001.6 1001.6 0.0
01/03:10am 18.4 21.0 17.6 95 0.5 CALM 0 0 0 0 1002.1 1002.1 0.0
01/03:00am 18.3 20.8 17.3 94 0.6 CALM 0 0 0 0 1002.1 1002.1 0.0
01/02:30am 18.2 20.6 16.9 92 0.8 CALM 0 0 0 0 1002.0 1002.0 0.0
01/02:00am 18.5 20.9 17.0 91 0.9 CALM 0 0 0 0 1002.6 1002.6 0.0
01/01:46am 19.0 21.7 17.7 92 0.8 CALM 0 6 0 3 1002.8 1002.8 0.0
01/01:30am 19.3 21.4 18.1 93 0.7 SSE 4 7 2 4 1003.2 1003.2 0.0
01/01:00am 19.4 22.3 18.1 92 0.8 CALM 0 0 0 0 1003.7 1003.7 0.0
01/12:36am 19.7 21.6 18.5 93 0.7 SW 6 7 3 4 1004.1 1004.1 0.0
01/12:30am 19.6 22.2 18.4 93 0.7 SW 2 7 1 4 1004.2 1004.2 0.0
01/12:00am 19.3 22.1 18.0 92 0.8 CALM 0 0 0 0 1004.3 1004.3 0.0
 
Date/Time
EDT
Temp
°C
App
Temp
°C
Dew
Point
Rel
Hum
%
Delta-T
°C
Wind Press
QNH
hPa
Press
MSL
hPa
Rain
since 9 am
mm
Dir
 
Spd
km/h
Gust
km/h
Spd
kts
Gust
kts
28/11:30pm 19.2 22.0 17.9 92 0.8 CALM 0 0 0 0 1004.9 1004.9 0.0
28/11:07pm 19.3 22.0 17.8 91 0.9 CALM 0 0 0 0 1005.2 1005.2 0.0
28/11:00pm 19.3 22.0 17.8 91 0.9 CALM 0 0 0 0 1005.3 1005.3 0.0
28/10:30pm 19.7 22.5 18.0 90 1.0 CALM 0 0 0 0 1005.6 1005.6 0.0
28/10:00pm 19.7 22.4 17.8 89 1.2 CALM 0 0 0 0 1005.8 1005.8 0.0
28/09:30pm 19.9 22.7 17.9 88 1.2 CALM 0 0 0 0 1006.1 1006.1 0.0
28/09:00pm 20.2 23.0 18.0 87 1.4 CALM 0 0 0 0 1006.0 1006.0 0.0
28/08:30pm 20.8 23.6 18.0 84 1.7 CALM 0 0 0 0 1006.0 1006.0 0.0
28/08:00pm 21.7 24.0 18.5 82 2.0 WSW 4 11 2 6 1006.0 1006.0 0.0
28/07:30pm 22.5 24.5 18.7 79 2.4 SW 6 11 3 6 1005.6 1005.6 0.0
28/07:00pm 23.0 24.4 18.7 77 2.7 NE 9 13 5 7 1005.2 1005.2 0.0
28/06:30pm 23.9 25.1 19.0 74 3.1 NE 11 17 6 9 1005.1 1005.1 0.0
28/06:00pm 24.1 24.5 19.0 73 3.3 NE 15 22 8 12 1005.2 1005.2 0.0
28/05:30pm 24.6 24.8 19.4 73 3.3 NE 17 28 9 15 1005.2 1005.2 0.0
28/05:00pm 24.5 24.3 19.3 73 3.3 NE 19 32 10 17 1005.1 1005.1 0.0
28/04:30pm 24.3 24.8 20.0 77 2.8 NE 17 28 9 15 1005.0 1005.0 0.0
28/04:00pm 24.1 24.3 19.4 75 3.0 NE 17 26 9 14 1005.2 1005.2 0.0
28/03:30pm 24.8 24.5 19.6 73 3.3 NE 20 32 11 17 1005.5 1005.5 0.0
28/03:00pm 24.3 23.9 18.9 72 3.4 NE 19 32 10 17 1005.7 1005.7 0.0
28/02:30pm 25.1 24.5 18.8 68 4.0 NE 20 32 11 17 1005.9 1005.9 0.0
28/02:00pm 25.6 24.6 18.8 66 4.3 NE 22 32 12 17 1006.5 1006.5 0.0
28/01:30pm 25.4 25.0 19.3 69 3.9 NE 20 30 11 16 1006.8 1006.8 0.0
28/01:00pm 25.0 24.6 19.4 71 3.6 NE 20 30 11 16 1007.1 1007.1 0.0
28/12:30pm 24.5 24.6 19.1 72 3.4 NE 17 24 9 13 1007.7 1007.7 0.0
28/12:00pm 24.1 23.8 19.2 74 3.1 NE 19 24 10 13 1007.9 1007.9 0.0
28/11:30am 23.6 24.2 18.5 73 3.2 NE 13 20 7 11 1008.4 1008.4 0.0
28/11:00am 23.3 24.1 19.0 77 2.7 NE 13 19 7 10 1008.8 1008.8 0.0
28/10:30am 22.2 22.9 18.0 77 2.6 E 11 17 6 9 1008.7 1008.7 0.0
28/10:00am 22.6 24.3 18.4 77 2.6 ENE 7 13 4 7 1009.4 1009.4 0.0
28/09:30am 23.1 24.8 18.4 75 3.0 NW 7 11 4 6 1009.6 1009.6 0.0
28/09:00am 22.4 23.6 18.2 77 2.6 NW 9 13 5 7 1009.6 1009.6 0.0
28/08:30am 21.6 23.5 18.6 83 1.9 WNW 6 9 3 5 1009.5 1009.5 0.0
28/08:26am 21.1 23.5 17.9 82 2.0 W 2 9 1 5 1009.5 1009.5 0.0
28/08:00am 19.9 21.4 17.7 87 1.4 WNW 6 7 3 4 1009.7 1009.7 0.0
28/07:58am 19.8 21.3 17.6 87 1.3 WNW 6 7 3 4 1009.6 1009.6 0.0
28/07:30am 19.4 22.0 17.5 89 1.2 CALM 0 0 0 0 1009.6 1009.6 0.0
28/07:00am 19.1 21.7 17.4 90 1.0 CALM 0 0 0 0 1009.5 1009.5 0.0
28/06:30am 18.9 21.5 17.4 91 0.9 CALM 0 0 0 0 1009.3 1009.3 0.0
28/06:00am 18.8 21.3 17.3 91 0.9 CALM 0 0 0 0 1009.1 1009.1 0.0
28/05:30am 18.6 21.1 17.3 92 0.8 CALM 0 0 0 0 1009.0 1009.0 0.0
28/05:00am 18.2 20.6 16.9 92 0.8 CALM 0 0 0 0 1009.0 1009.0 0.0
28/04:30am 18.2 20.5 16.7 91 0.9 CALM 0 0 0 0 1009.1 1009.1 0.0
28/04:00am 18.0 20.1 16.2 89 1.1 CALM 0 0 0 0 1009.4 1009.4 0.0
28/03:30am 18.2 20.2 16.0 87 1.3 CALM 0 0 0 0 1009.5 1009.5 0.0
28/03:00am 19.2 21.5 16.8 86 1.4 CALM 0 0 0 0 1009.8 1009.8 0.0
28/02:30am 20.1 22.8 17.7 86 1.5 CALM 0 0 0 0 1010.1 1010.1 0.0
28/02:00am 20.0 22.6 17.4 85 1.6 CALM 0 0 0 0 1010.3 1010.3 0.0
28/01:30am 20.2 22.8 17.6 85 1.6 CALM 0 0 0 0 1010.4 1010.4 0.0
28/01:00am 20.1 22.6 17.3 84 1.7 CALM 0 0 0 0 1010.5 1010.5 0.0
28/12:30am 20.0 22.6 17.4 85 1.6 CALM 0 0 0 0 1010.7 1010.7 0.0
28/12:00am 20.1 22.7 17.5 85 1.6 CALM 0 0 0 0 1010.6 1010.6 0.0
 
Date/Time
EDT
Temp
°C
App
Temp
°C
Dew
Point
Rel
Hum
%
Delta-T
°C
Wind Press
QNH
hPa
Press
MSL
hPa
Rain
since 9 am
mm
Dir
 
Spd
km/h
Gust
km/h
Spd
kts
Gust
kts
27/11:30pm 20.1 22.7 17.5 85 1.6 CALM 0 0 0 0 1010.6 1010.6 0.0
27/11:00pm 20.2 22.7 17.2 83 1.8 CALM 0 0 0 0 1010.6 1010.6 0.0
27/10:30pm 20.5 22.8 16.7 79 2.3 CALM 0 0 0 0 1010.8 1010.8 0.0
27/10:00pm 20.5 22.9 16.9 80 2.2 CALM 0 0 0 0 1011.0 1011.0 0.0
27/09:30pm 21.0 23.5 17.2 79 2.3 CALM 0 0 0 0 1011.0 1011.0 0.0
27/09:00pm 21.1 22.4 17.1 78 2.4 SSW 6 9 3 5 1011.2 1011.2 0.0
27/08:30pm 21.1 22.4 17.1 78 2.4 SSW 6 7 3 4 1010.7 1010.7 0.0
27/08:00pm 21.1 22.2 17.1 78 2.4 S 7 9 4 5 1010.2 1010.2 0.0
27/07:30pm 21.2 21.9 17.0 77 2.6 SSE 9 11 5 6 1010.0 1010.0 0.0
27/07:00pm 21.4 22.2 17.2 77 2.6 SE 9 11 5 6 1009.3 1009.3 0.0
27/06:30pm 21.8 22.6 17.2 75 2.8 SE 9 13 5 7 1009.4 1009.4 0.0
27/06:00pm 21.9 22.7 17.3 75 2.8 ESE 9 13 5 7 1009.3 1009.3 0.0
27/05:30pm 21.7 22.0 17.1 75 2.8 SSE 11 15 6 8 1009.1 1009.1 0.0
27/05:00pm 22.1 23.0 17.5 75 2.8 SE 9 17 5 9 1008.8 1008.8 0.0
27/04:30pm 22.8 23.2 17.3 71 3.4 ESE 11 17 6 9 1008.6 1008.6 0.0
27/04:00pm 22.6 22.7 16.4 68 3.8 E 11 19 6 10 1008.8 1008.8 0.0
27/03:30pm 23.5 23.9 17.3 68 3.8 E 11 19 6 10 1008.9 1008.9 0.0
27/03:00pm 22.7 22.7 16.3 67 3.9 E 11 17 6 9 1009.3 1009.3 0.0
27/02:30pm 23.3 23.4 16.6 66 4.1 E 11 20 6 11 1009.6 1009.6 0.0
27/02:00pm 23.4 22.9 16.0 63 4.5 E 13 20 7 11 1009.8 1009.8 0.0
27/01:30pm 23.2 23.1 16.0 64 4.4 ESE 11 17 6 9 1010.1 1010.1 0.0
27/01:00pm 22.8 22.2 15.6 64 4.3 ESE 13 17 7 9 1010.5 1010.5 0.0
27/12:30pm 22.5 21.4 14.4 60 4.8 E 13 20 7 11 1010.8 1010.8 0.0
27/12:00pm 22.7 21.8 13.7 56 5.2 E 11 17 6 9 1010.9 1010.9 0.0
27/11:30am 22.5 21.5 14.6 61 4.7 NE 13 20 7 11 1010.9 1010.9 0.0
27/11:00am 21.7 21.9 15.8 69 3.5 NE 9 15 5 8 1010.9 1010.9 0.0
27/10:30am 20.4 22.3 16.6 79 2.3 E 2 9 1 5 1011.1 1011.1 0.0
27/10:00am 19.1 20.1 15.4 79 2.2 E 4 9 2 5 1011.2 1011.2 0.0
27/09:30am 19.6 20.2 15.3 76 2.5 ESE 6 11 3 6 1010.8 1010.8 0.0
27/09:00am 18.6 20.6 16.0 85 1.5 CALM 0 0 0 0 1010.7 1010.7 0.0
27/08:30am 18.0 19.9 15.8 87 1.3 CALM 0 0 0 0 1010.6 1010.6 0.0
27/08:02am 16.9 18.9 15.9 94 0.6 CALM 0 0 0 0 1010.6 1010.6 0.0
27/08:00am 16.7 18.6 15.7 94 0.6 CALM 0 0 0 0 1010.7 1010.7 0.0
27/07:30am 15.3 16.7 14.5 95 0.5 CALM 0 0 0 0 1010.3 1010.3 0.0
27/07:09am 14.9 16.1 13.9 94 0.6 CALM 0 0 0 0 1010.2 1010.2 0.0
27/07:04am 14.8 16.0 13.8 94 0.6 CALM 0 0 0 0 1010.3 1010.3 0.0
27/07:00am 14.8 16.0 13.8 94 0.6 CALM 0 0 0 0 1010.2 1010.2 0.0
27/06:38am 15.0 16.2 13.9 93 0.6 CALM 0 0 0 0 1010.0 1010.0 0.0
27/06:30am 15.0 16.2 13.9 93 0.6 CALM 0 0 0 0 1010.0 1010.0 0.0
27/06:16am 15.3 16.7 14.3 94 0.6 CALM 0 0 0 0 1009.8 1009.8 0.0
27/06:04am 15.2 16.5 14.1 93 0.6 CALM 0 0 0 0 1009.8 1009.8 0.0
27/06:00am 15.3 16.7 14.3 94 0.6 CALM 0 0 0 0 1009.8 1009.8 0.0
27/05:30am 15.3 16.6 14.2 93 0.6 CALM 0 0 0 0 1009.7 1009.7 0.0
27/05:00am 15.6 17.1 14.6 94 0.6 CALM 0 0 0 0 1009.9 1009.9 0.0
27/04:30am 15.4 16.8 14.4 94 0.6 CALM 0 0 0 0 1010.0 1010.0 0.0
27/04:00am 15.3 16.7 14.3 94 0.6 CALM 0 0 0 0 1010.2 1010.2 0.0

Other Formats:

Comma delimited format used in spreadsheet applications
http://www.bom.gov.au/fwo/IDN60801/IDN60801.95929.axf

JavaScript Object Notation format (JSON) in row-major order
http://www.bom.gov.au/fwo/IDN60801/IDN60801.95929.json